Time;durP1;ratioP1;P1;durP2;ratioP2;P2;SDS_P1;SDS_P2;PMS_P1;PMS_P2;Temp;Humidity;BMP_temperature;BMP_pressure;BME280_temperature;BME280_humidity;BME280_pressure;Samples;Min_cycle;Max_cycle;Signal;HPM_P1;HPM_P2
2021/03/05 00:02:20;;;;;;;11.43;7.40;;;2.70;99.90;;;;;;4992956;28;20180;-70
2021/03/05 00:04:46;;;;;;;10.10;6.93;;;2.70;99.90;;;;;;4993027;28;20553;-71
2021/03/05 00:07:12;;;;;;;10.40;6.20;;;2.70;99.90;;;;;;4992552;28;20207;-72
2021/03/05 00:09:38;;;;;;;14.03;8.03;;;2.70;99.90;;;;;;4992876;28;20169;-72
2021/03/05 00:12:04;;;;;;;9.97;7.27;;;2.60;99.90;;;;;;4975391;28;20932;-71
2021/03/05 00:14:30;;;;;;;13.73;8.27;;;2.60;99.90;;;;;;4992368;28;20455;-71
2021/03/05 00:16:55;;;;;;;16.63;8.23;;;2.50;99.90;;;;;;4998106;28;20407;-70
2021/03/05 00:19:21;;;;;;;14.03;7.30;;;2.60;99.90;;;;;;5012312;28;20251;-72
2021/03/05 00:21:46;;;;;;;11.23;8.10;;;2.60;99.90;;;;;;5012297;28;20632;-71
2021/03/05 00:24:12;;;;;;;15.33;7.97;;;2.60;99.90;;;;;;4994587;28;20192;-70
2021/03/05 00:26:38;;;;;;;13.77;8.17;;;2.60;99.90;;;;;;5011920;28;20207;-72
2021/03/05 00:29:03;;;;;;;20.63;9.50;;;2.60;99.90;;;;;;5012095;28;20169;-70
2021/03/05 00:31:28;;;;;;;14.63;7.90;;;2.60;99.90;;;;;;5012216;28;20164;-71
2021/03/05 00:33:54;;;;;;;14.03;8.40;;;2.50;99.90;;;;;;5011902;28;20188;-72
2021/03/05 00:36:19;;;;;;;15.50;7.90;;;2.60;99.90;;;;;;5011781;28;20191;-71
2021/03/05 00:38:45;;;;;;;15.90;8.60;;;2.60;99.90;;;;;;5011982;28;20172;-70
2021/03/05 00:41:10;;;;;;;19.23;9.13;;;2.60;99.90;;;;;;4993990;28;20196;-70
2021/03/05 00:43:36;;;;;;;18.70;9.20;;;2.50;99.90;;;;;;5011909;28;20192;-71
2021/03/05 00:46:01;;;;;;;17.40;10.03;;;2.50;99.90;;;;;;5012018;28;20172;-71
2021/03/05 00:48:27;;;;;;;17.70;9.50;;;2.50;99.90;;;;;;5011627;28;20286;-71
2021/03/05 00:50:52;;;;;;;15.93;8.97;;;2.50;99.90;;;;;;5027204;28;20248;-71
2021/03/05 00:53:18;;;;;;;17.90;9.20;;;2.50;99.90;;;;;;4994855;28;20188;-71
2021/03/05 00:55:43;;;;;;;15.83;8.50;;;2.50;99.90;;;;;;5011958;28;20176;-71
2021/03/05 00:58:09;;;;;;;20.80;9.40;;;2.50;99.90;;;;;;5007863;28;20254;-71
2021/03/05 01:00:34;;;;;;;18.20;9.10;;;2.50;99.90;;;;;;5011606;28;20218;-71
2021/03/05 01:03:00;;;;;;;15.17;8.30;;;2.50;99.90;;;;;;5011737;28;20207;-71
2021/03/05 01:05:26;;;;;;;20.07;10.30;;;2.50;99.90;;;;;;5011850;28;20188;-71
2021/03/05 01:07:51;;;;;;;19.40;10.00;;;2.50;99.90;;;;;;5011625;28;20216;-71
2021/03/05 01:10:18;;;;;;;18.23;9.60;;;2.40;99.90;;;;;;5011954;28;20831;-72
2021/03/05 01:12:43;;;;;;;14.50;8.23;;;2.40;99.90;;;;;;5011819;28;20168;-72
2021/03/05 01:15:09;;;;;;;13.63;7.57;;;2.40;99.90;;;;;;5011769;28;20903;-72
2021/03/05 01:17:35;;;;;;;18.83;8.70;;;2.40;99.90;;;;;;5011370;28;20180;-72
2021/03/05 01:20:00;;;;;;;19.97;10.80;;;2.30;99.90;;;;;;5011872;28;20411;-72
2021/03/05 01:22:26;;;;;;;18.10;9.13;;;2.30;99.90;;;;;;5011741;28;20259;-72
2021/03/05 01:24:52;;;;;;;20.43;8.93;;;2.30;99.90;;;;;;4994141;28;20461;-72
2021/03/05 01:27:17;;;;;;;25.90;10.70;;;2.30;99.90;;;;;;5011654;28;20454;-72
2021/03/05 01:29:43;;;;;;;19.50;9.47;;;2.20;99.90;;;;;;5011912;28;20164;-72
2021/03/05 01:32:09;;;;;;;23.63;10.10;;;2.20;99.90;;;;;;5011698;28;20179;-71
2021/03/05 01:34:34;;;;;;;18.80;8.03;;;2.10;99.90;;;;;;5011525;28;20438;-71
2021/03/05 01:37:00;;;;;;;24.23;10.17;;;2.00;99.90;;;;;;5009059;28;20220;-71
2021/03/05 01:39:25;;;;;;;23.83;9.67;;;2.00;99.90;;;;;;4998910;28;20219;-71
2021/03/05 01:41:51;;;;;;;15.50;9.37;;;1.90;99.90;;;;;;4992023;28;20208;-71
2021/03/05 01:44:16;;;;;;;24.30;10.07;;;1.90;99.90;;;;;;5010381;28;20196;-71
2021/03/05 01:46:42;;;;;;;18.17;10.50;;;1.80;99.90;;;;;;5011023;28;20306;-72
2021/03/05 01:49:08;;;;;;;22.00;10.40;;;1.80;99.90;;;;;;5011472;28;20165;-72
2021/03/05 01:51:35;;;;;;;24.20;11.00;;;1.70;99.90;;;;;;5011778;28;20173;-73
2021/03/05 01:54:01;;;;;;;20.47;10.10;;;1.60;99.90;;;;;;5015004;28;20514;-71
2021/03/05 01:56:40;;;;;;;33.57;11.87;;;1.60;99.90;;;;;;5022539;28;20418;-71
2021/03/05 01:59:09;;;;;;;32.07;13.77;;;1.50;99.90;;;;;;5032187;28;20180;-71
2021/03/05 02:01:35;;;;;;;29.60;13.77;;;1.50;99.90;;;;;;5034520;28;20398;-72
2021/03/05 02:04:06;;;;;;;32.70;12.03;;;1.40;99.90;;;;;;5034719;28;20519;-72
2021/03/05 02:06:31;;;;;;;26.40;12.43;;;1.40;99.90;;;;;;5034388;28;20418;-71
2021/03/05 02:08:57;;;;;;;32.27;15.30;;;1.30;99.90;;;;;;5034566;28;20398;-71
2021/03/05 02:11:24;;;;;;;19.07;11.07;;;1.30;99.90;;;;;;5034511;28;20172;-71
2021/03/05 02:13:53;;;;;;;42.77;12.87;;;1.20;99.90;;;;;;5016478;28;20241;-71
2021/03/05 02:16:38;;;;;;;33.30;12.30;;;1.10;99.90;;;;;;5033497;28;20879;-71
2021/03/05 02:19:22;;;;;;;30.03;12.53;;;1.10;99.90;;;;;;5014523;28;20467;-71
2021/03/05 02:22:12;;;;;;;31.77;11.27;;;1.00;99.90;;;;;;5014855;28;20396;-73
2021/03/05 02:24:41;;;;;;;28.10;12.10;;;1.00;99.90;;;;;;5011669;28;20803;-71
2021/03/05 02:27:34;;;;;;;27.53;13.87;;;1.00;99.90;;;;;;5014164;28;20805;-72
2021/03/05 02:30:38;;;;;;;25.80;12.10;;;0.90;99.90;;;;;;5014296;28;20403;-71
2021/03/05 02:33:13;;;;;;;26.33;10.13;;;0.80;99.90;;;;;;5014290;28;20419;-72
2021/03/05 02:35:41;;;;;;;34.33;12.37;;;0.80;99.90;;;;;;5014176;28;20402;-72
2021/03/05 02:38:10;;;;;;;26.33;11.60;;;0.80;99.90;;;;;;5004270;28;20440;-72
2021/03/05 02:40:39;;;;;;;28.60;12.53;;;0.70;99.90;;;;;;4994641;28;20803;-71
2021/03/05 02:43:08;;;;;;;37.33;12.17;;;0.60;99.90;;;;;;4994482;28;20428;-71
2021/03/05 02:45:37;;;;;;;29.37;10.83;;;0.60;99.90;;;;;;4994383;28;20411;-71
2021/03/05 02:48:21;;;;;;;26.40;11.17;;;0.60;99.90;;;;;;4994034;28;20503;-72
2021/03/05 02:50:52;;;;;;;19.80;10.77;;;0.50;99.90;;;;;;4994351;28;20412;-71
2021/03/05 02:53:22;;;;;;;26.97;9.87;;;0.50;99.90;;;;;;4994142;28;20420;-71
2021/03/05 02:55:52;;;;;;;25.03;9.53;;;0.50;99.90;;;;;;4994215;28;20405;-72
2021/03/05 02:58:19;;;;;;;28.80;10.73;;;0.50;99.90;;;;;;4993962;28;20419;-71
2021/03/05 03:00:46;;;;;;;26.53;10.10;;;0.50;99.90;;;;;;4993852;28;20420;-71
2021/03/05 03:03:13;;;;;;;25.23;9.47;;;0.40;99.90;;;;;;4993564;28;20440;-71
2021/03/05 03:05:39;;;;;;;19.13;8.90;;;0.40;99.90;;;;;;4994070;28;20424;-71
2021/03/05 03:08:06;;;;;;;23.73;11.23;;;0.40;99.90;;;;;;4993754;28;21006;-71
2021/03/05 03:10:32;;;;;;;17.07;10.47;;;0.40;99.90;;;;;;4995546;28;20419;-71
2021/03/05 03:13:00;;;;;;;31.00;11.73;;;0.40;99.90;;;;;;4997406;28;20552;-71
2021/03/05 03:15:29;;;;;;;25.87;8.70;;;0.30;99.90;;;;;;4993575;28;20788;-73
2021/03/05 03:17:57;;;;;;;17.40;8.60;;;0.30;99.90;;;;;;5007134;28;20792;-71
2021/03/05 03:20:23;;;;;;;21.83;10.50;;;0.20;99.90;;;;;;5013334;28;20851;-73
2021/03/05 03:22:49;;;;;;;17.10;9.17;;;0.20;99.90;;;;;;5013589;28;20904;-70
2021/03/05 03:25:15;;;;;;;22.70;10.50;;;0.10;99.90;;;;;;5013230;28;20446;-70
2021/03/05 03:27:42;;;;;;;18.97;10.70;;;0.10;99.90;;;;;;5012820;28;20204;-71
2021/03/05 03:30:10;;;;;;;26.73;10.90;;;0.10;99.90;;;;;;5012924;28;20400;-71
2021/03/05 03:32:37;;;;;;;26.77;9.27;;;0.00;99.90;;;;;;5013178;28;20411;-71
2021/03/05 03:35:08;;;;;;;21.67;8.97;;;0.00;99.90;;;;;;5011697;28;20438;-71
2021/03/05 03:37:34;;;;;;;18.07;8.93;;;0.00;99.90;;;;;;5005772;28;20439;-71
2021/03/05 03:40:01;;;;;;;20.27;8.20;;;0.00;99.90;;;;;;4994192;28;20444;-71
2021/03/05 03:42:27;;;;;;;16.30;8.73;;;-0.10;99.90;;;;;;4993286;28;20463;-71
2021/03/05 03:44:52;;;;;;;16.47;7.50;;;-0.10;99.90;;;;;;4992833;28;20511;-71
2021/03/05 03:47:22;;;;;;;16.73;8.47;;;-0.10;99.90;;;;;;5004031;28;20816;-71
2021/03/05 03:49:51;;;;;;;18.30;8.80;;;-0.20;99.90;;;;;;5012566;28;20200;-71
2021/03/05 03:52:57;;;;;;;15.53;9.43;;;-0.20;99.90;;;;;;5012719;28;20408;-72
2021/03/05 03:55:23;;;;;;;16.70;8.20;;;-0.20;99.90;;;;;;4971533;28;20868;-70
2021/03/05 03:57:53;;;;;;;13.83;7.27;;;-0.30;99.90;;;;;;4971142;28;20418;-71
2021/03/05 04:00:19;;;;;;;14.53;8.17;;;-0.30;99.90;;;;;;4991742;28;20419;-71
2021/03/05 04:02:49;;;;;;;16.83;8.97;;;-0.30;99.90;;;;;;5012467;28;20991;-71
2021/03/05 04:05:19;;;;;;;20.23;7.73;;;-0.30;99.90;;;;;;5012640;28;20411;-71
2021/03/05 04:07:46;;;;;;;20.10;7.00;;;-0.30;99.90;;;;;;5012171;28;20529;-72
2021/03/05 04:10:12;;;;;;;19.67;8.67;;;-0.40;99.90;;;;;;5012431;28;20415;-70
2021/03/05 04:12:38;;;;;;;12.60;6.57;;;-0.40;99.90;;;;;;5012615;28;20494;-71
2021/03/05 04:15:05;;;;;;;16.80;7.93;;;-0.50;99.90;;;;;;5011302;28;20485;-71
2021/03/05 04:17:31;;;;;;;15.63;6.30;;;-0.50;99.90;;;;;;5010807;28;20459;-71
2021/03/05 04:19:57;;;;;;;14.43;6.40;;;-0.50;99.90;;;;;;5012394;28;20453;-71
2021/03/05 04:22:23;;;;;;;11.10;7.17;;;-0.50;99.90;;;;;;5012327;28;20175;-71
2021/03/05 04:24:50;;;;;;;19.40;7.60;;;-0.50;99.90;;;;;;5012211;28;20463;-71
2021/03/05 04:27:16;;;;;;;15.80;6.93;;;-0.50;99.90;;;;;;5012146;28;20455;-71
2021/03/05 04:29:41;;;;;;;9.87;6.30;;;-0.50;99.90;;;;;;5011941;28;20418;-71
2021/03/05 04:32:07;;;;;;;18.57;6.17;;;-0.60;99.90;;;;;;5012229;28;20407;-72
2021/03/05 04:34:33;;;;;;;20.10;7.80;;;-0.60;99.90;;;;;;4994607;28;20196;-71
2021/03/05 04:36:59;;;;;;;11.63;6.60;;;-0.60;99.90;;;;;;5011909;28;20180;-71
2021/03/05 04:39:24;;;;;;;14.17;6.90;;;-0.60;99.90;;;;;;5012029;28;20788;-71
2021/03/05 04:41:50;;;;;;;17.70;7.30;;;-0.60;99.90;;;;;;4994593;28;20168;-71
2021/03/05 04:44:17;;;;;;;22.70;7.20;;;-0.60;99.90;;;;;;5011998;28;20309;-71
2021/03/05 04:46:42;;;;;;;16.93;6.40;;;-0.60;99.90;;;;;;5011876;28;20204;-71
2021/03/05 04:49:08;;;;;;;11.97;6.60;;;-0.60;99.90;;;;;;5012133;28;20486;-71
2021/03/05 04:51:34;;;;;;;9.40;7.00;;;-0.70;99.90;;;;;;5012085;28;20547;-71
2021/03/05 04:54:00;;;;;;;11.37;5.77;;;-0.70;99.90;;;;;;5012222;28;20431;-71
2021/03/05 04:56:26;;;;;;;18.10;7.40;;;-0.70;99.90;;;;;;5011889;28;20231;-71
2021/03/05 04:58:51;;;;;;;16.90;10.07;;;-0.70;99.90;;;;;;5011834;28;20420;-71
2021/03/05 05:01:17;;;;;;;13.70;6.73;;;-0.70;99.90;;;;;;5012072;28;20746;-71
2021/03/05 05:03:43;;;;;;;12.13;6.77;;;-0.80;99.90;;;;;;5011743;28;20192;-71
2021/03/05 05:06:09;;;;;;;10.90;7.00;;;-0.80;99.90;;;;;;5011699;28;20196;-71
2021/03/05 05:08:35;;;;;;;11.80;7.00;;;-0.80;99.90;;;;;;5011699;28;20897;-71
2021/03/05 05:11:00;;;;;;;10.97;6.47;;;-0.90;99.90;;;;;;5011850;28;20431;-71
2021/03/05 05:13:26;;;;;;;9.03;5.30;;;-0.80;99.90;;;;;;5019452;28;20230;-71
2021/03/05 05:15:51;;;;;;;11.50;7.33;;;-0.90;99.90;;;;;;5027196;28;20176;-70
2021/03/05 05:18:17;;;;;;;5.43;4.93;;;-0.80;99.90;;;;;;5014488;28;20183;-72
2021/03/05 05:20:42;;;;;;;13.33;6.53;;;-0.80;99.90;;;;;;5011687;28;20179;-70
2021/03/05 05:23:08;;;;;;;9.27;5.53;;;-0.80;99.90;;;;;;5011651;28;20196;-71
2021/03/05 05:25:34;;;;;;;8.50;5.93;;;-0.80;99.90;;;;;;5011647;28;20160;-71
2021/03/05 05:27:59;;;;;;;13.53;5.97;;;-0.80;99.90;;;;;;5014936;28;20457;-71
2021/03/05 05:30:25;;;;;;;6.20;4.87;;;-0.80;99.90;;;;;;5015290;28;20168;-71
2021/03/05 05:32:51;;;;;;;6.20;4.30;;;-0.80;99.90;;;;;;5015210;28;20184;-71
2021/03/05 05:35:16;;;;;;;13.53;5.50;;;-0.80;99.90;;;;;;5015250;28;20172;-71
2021/03/05 05:37:42;;;;;;;8.33;6.90;;;-0.80;99.90;;;;;;5015025;28;20710;-71
2021/03/05 05:40:08;;;;;;;8.17;5.40;;;-0.80;99.90;;;;;;5001784;28;20197;-71
2021/03/05 05:42:34;;;;;;;6.50;5.03;;;-0.90;99.90;;;;;;5014780;28;20180;-71
2021/03/05 05:44:59;;;;;;;6.57;5.10;;;-0.90;99.90;;;;;;5005631;28;20436;-71
2021/03/05 05:47:28;;;;;;;8.77;6.60;;;-0.90;99.90;;;;;;4994941;28;20201;-71
2021/03/05 05:50:00;;;;;;;8.17;5.13;;;-1.00;99.90;;;;;;4995063;28;20177;-71
2021/03/05 05:52:25;;;;;;;5.20;4.17;;;-1.00;99.90;;;;;;4995296;28;20412;-71
2021/03/05 05:54:54;;;;;;;10.37;5.47;;;-1.00;99.90;;;;;;4994903;28;20835;-71
2021/03/05 05:57:19;;;;;;;7.83;5.80;;;-1.00;99.90;;;;;;5007809;28;20258;-71
2021/03/05 05:59:46;;;;;;;6.97;5.50;;;-1.00;99.90;;;;;;5008027;28;20505;-71
2021/03/05 06:02:12;;;;;;;9.77;6.10;;;-1.10;99.90;;;;;;5034846;28;20628;-71
2021/03/05 06:04:38;;;;;;;9.30;6.23;;;-1.00;99.90;;;;;;5034255;28;20429;-71
2021/03/05 06:07:03;;;;;;;10.43;5.57;;;-1.00;99.90;;;;;;5034042;28;20457;-71
2021/03/05 06:09:29;;;;;;;5.50;4.97;;;-1.00;99.90;;;;;;5034363;28;20402;-71
2021/03/05 06:11:55;;;;;;;7.53;5.10;;;-0.90;99.90;;;;;;5031136;28;20187;-71
2021/03/05 06:14:20;;;;;;;12.67;5.80;;;-0.90;99.90;;;;;;5014496;28;20415;-71
2021/03/05 06:16:54;;;;;;;9.07;6.87;;;-0.90;99.90;;;;;;5018540;28;20170;-71
2021/03/05 06:19:23;;;;;;;5.60;5.00;;;-0.90;99.90;;;;;;5034446;28;20599;-72
2021/03/05 06:21:49;;;;;;;7.37;5.97;;;-0.80;99.90;;;;;;5034168;28;20413;-71
2021/03/05 06:24:15;;;;;;;8.27;5.80;;;-0.80;99.90;;;;;;5033870;28;20426;-72
2021/03/05 06:26:59;;;;;;;9.10;6.30;;;-0.80;99.90;;;;;;5033701;28;20175;-72
2021/03/05 06:29:27;;;;;;;11.33;5.63;;;-0.80;99.90;;;;;;5033862;28;20676;-72
2021/03/05 06:32:02;;;;;;;13.90;6.47;;;-0.70;99.90;;;;;;5033871;28;20407;-70
2021/03/05 06:34:29;;;;;;;7.80;6.17;;;-0.60;99.90;;;;;;5033875;28;20429;-72
2021/03/05 06:37:04;;;;;;;12.23;7.10;;;-0.50;99.90;;;;;;5033659;28;20413;-72
2021/03/05 06:39:31;;;;;;;10.23;7.30;;;-0.30;99.90;;;;;;5033259;28;20940;-72
2021/03/05 06:42:02;;;;;;;10.40;7.17;;;-0.20;99.90;;;;;;5033682;28;20464;-72
2021/03/05 06:44:29;;;;;;;11.67;7.70;;;-0.10;99.90;;;;;;5033569;28;20414;-72
2021/03/05 06:46:54;;;;;;;8.20;7.23;;;0.00;99.90;;;;;;5033407;28;20788;-72
2021/03/05 06:49:21;;;;;;;13.07;7.70;;;0.40;99.90;;;;;;5033737;28;20413;-72
2021/03/05 06:51:54;;;;;;;10.07;7.23;;;1.20;99.90;;;;;;5033660;28;20164;-70
2021/03/05 06:54:21;;;;;;;9.17;6.83;;;2.40;99.90;;;;;;5033446;28;20452;-70
2021/03/05 06:56:49;;;;;;;6.90;5.23;;;3.50;99.90;;;;;;5033284;28;20497;-71
2021/03/05 06:59:16;;;;;;;6.57;5.10;;;3.30;99.90;;;;;;5033591;28;20844;-70
2021/03/05 07:01:58;;;;;;;5.07;4.43;;;3.20;99.90;;;;;;5033399;28;20421;-70
2021/03/05 07:04:25;;;;;;;6.70;4.80;;;3.00;99.90;;;;;;5033565;28;20422;-70
2021/03/05 07:07:05;;;;;;;5.53;4.57;;;4.10;99.90;;;;;;5033382;28;20454;-71
2021/03/05 07:09:41;;;;;;;3.83;3.43;;;5.20;99.90;;;;;;5033120;28;20399;-71
2021/03/05 07:12:09;;;;;;;3.87;3.57;;;5.70;99.90;;;;;;5029555;28;20411;-70
2021/03/05 07:14:36;;;;;;;4.33;3.90;;;5.50;99.90;;;;;;5024715;28;20437;-70
2021/03/05 07:17:02;;;;;;;4.20;3.50;;;5.20;99.90;;;;;;5026414;28;20419;-70
2021/03/05 07:19:31;;;;;;;5.87;3.50;;;5.60;99.90;;;;;;5013235;28;20415;-70
2021/03/05 07:21:57;;;;;;;3.70;3.40;;;6.10;99.90;;;;;;5013237;28;20395;-70
2021/03/05 07:24:25;;;;;;;3.93;3.40;;;6.00;99.90;;;;;;5013228;28;20493;-70
2021/03/05 07:26:53;;;;;;;3.50;3.20;;;5.10;99.90;;;;;;5013001;28;20458;-70
2021/03/05 07:29:27;;;;;;;8.83;4.53;;;5.90;99.90;;;;;;5013074;28;20452;-72
2021/03/05 07:32:01;;;;;;;3.57;2.90;;;6.20;99.90;;;;;;5013154;28;20407;-71
2021/03/05 07:34:28;;;;;;;8.57;3.47;;;5.80;99.90;;;;;;5013075;28;20433;-72
2021/03/05 07:37:00;;;;;;;4.10;3.70;;;5.50;99.90;;;;;;5012727;28;20468;-71
2021/03/05 07:39:30;;;;;;;4.83;3.37;;;5.80;99.90;;;;;;5013118;28;20431;-71
2021/03/05 07:41:55;;;;;;;5.53;3.70;;;6.50;99.90;;;;;;5013046;28;20402;-72
2021/03/05 07:44:22;;;;;;;4.07;3.20;;;6.10;99.90;;;;;;5012950;28;20431;-71
2021/03/05 07:46:48;;;;;;;3.13;2.77;;;6.60;99.90;;;;;;5012593;28;20187;-71
2021/03/05 07:49:14;;;;;;;5.87;2.97;;;6.30;99.90;;;;;;5012868;28;20400;-71
2021/03/05 07:51:41;;;;;;;4.50;3.23;;;7.30;99.90;;;;;;5011491;28;20490;-72
2021/03/05 07:54:07;;;;;;;4.67;3.27;;;7.40;99.90;;;;;;5012627;28;20459;-71
2021/03/05 07:56:43;;;;;;;3.63;2.73;;;7.50;99.90;;;;;;5012617;28;20404;-71
2021/03/05 07:59:10;;;;;;;5.53;2.77;;;6.60;99.90;;;;;;5012476;28;20414;-71
2021/03/05 08:01:50;;;;;;;3.73;3.27;;;6.90;99.90;;;;;;5012642;28;20917;-71
2021/03/05 08:04:16;;;;;;;5.03;4.33;;;6.90;99.90;;;;;;5012409;28;20437;-72
2021/03/05 08:06:41;;;;;;;2.73;2.53;;;6.60;99.90;;;;;;5012115;28;20412;-71
2021/03/05 08:09:12;;;;;;;4.70;2.67;;;7.40;99.90;;;;;;5011090;28;20207;-71
2021/03/05 08:11:39;;;;;;;3.57;3.27;;;7.00;99.90;;;;;;5001758;28;20731;-72
2021/03/05 08:14:25;;;;;;;3.07;2.77;;;5.50;99.90;;;;;;5012118;28;20427;-72
2021/03/05 08:16:52;;;;;;;4.37;3.53;;;6.00;99.90;;;;;;5016669;28;20406;-72
2021/03/05 08:19:18;;;;;;;5.57;3.90;;;7.40;99.90;;;;;;5031953;28;20441;-69
2021/03/05 08:22:01;;;;;;;6.80;4.00;;;7.60;99.90;;;;;;5031794;28;20410;-70
2021/03/05 08:24:39;;;;;;;5.70;3.00;;;7.30;99.90;;;;;;5031780;28;20194;-70
2021/03/05 08:27:11;;;;;;;4.33;3.47;;;8.50;99.90;;;;;;5029124;28;20522;-71
2021/03/05 08:29:59;;;;;;;3.93;3.53;;;8.10;99.90;;;;;;5023520;28;20431;-70
2021/03/05 08:32:33;;;;;;;2.93;2.60;;;7.10;99.90;;;;;;5031760;28;20411;-70
2021/03/05 08:35:38;;;;;;;2.30;2.10;;;7.10;99.90;;;;;;5031545;28;20496;-70
2021/03/05 08:38:08;;;;;;;6.40;3.07;;;7.80;99.90;;;;;;5031226;28;20468;-70
2021/03/05 08:40:38;;;;;;;3.77;2.93;;;8.70;99.90;;;;;;5031610;28;20890;-72
2021/03/05 08:43:09;;;;;;;3.20;2.50;;;8.90;99.90;;;;;;5031483;28;20431;-70
2021/03/05 08:45:40;;;;;;;3.50;3.20;;;8.10;99.90;;;;;;5031541;28;20448;-71
2021/03/05 08:48:06;;;;;;;7.00;3.20;;;8.70;99.90;;;;;;5031297;28;20980;-71
2021/03/05 08:50:34;;;;;;;4.53;3.13;;;8.50;99.90;;;;;;5031562;28;20441;-71
2021/03/05 08:53:07;;;;;;;9.90;3.33;;;9.10;99.90;;;;;;5031508;28;20817;-72
2021/03/05 08:55:35;;;;;;;4.07;3.30;;;9.40;99.90;;;;;;4993197;28;20937;-75
2021/03/05 08:58:01;;;;;;;5.60;4.53;;;9.50;99.90;;;;;;5011618;28;20413;-72
2021/03/05 09:00:32;;;;;;;6.87;4.67;;;9.30;99.90;;;;;;5010420;28;20948;-71
2021/03/05 09:03:07;;;;;;;7.40;4.00;;;6.80;99.90;;;;;;5029896;28;20461;-72
2021/03/05 09:05:37;;;;;;;6.60;4.67;;;7.60;99.90;;;;;;5024311;28;20476;-72
2021/03/05 09:08:03;;;;;;;4.27;3.77;;;8.00;99.90;;;;;;5032339;28;20449;-72
2021/03/05 09:10:39;;;;;;;5.40;4.57;;;8.60;99.90;;;;;;5016085;28;20559;-71
2021/03/05 09:13:04;;;;;;;4.13;3.70;;;7.60;99.90;;;;;;5015349;28;20439;-71
2021/03/05 09:15:46;;;;;;;4.80;4.30;;;7.50;99.90;;;;;;5015650;28;20913;-72
2021/03/05 09:18:17;;;;;;;5.90;5.30;;;8.30;99.90;;;;;;5018548;28;20516;-71
2021/03/05 09:20:46;;;;;;;4.40;3.93;;;9.40;99.90;;;;;;4997995;28;20946;-72
2021/03/05 09:23:25;;;;;;;5.87;4.70;;;8.10;99.90;;;;;;5015293;28;20423;-72
2021/03/05 09:25:54;;;;;;;8.43;4.30;;;8.40;99.90;;;;;;5015773;28;20407;-72
2021/03/05 09:28:22;;;;;;;6.10;5.50;;;8.40;99.90;;;;;;5015125;28;20454;-71
2021/03/05 09:30:50;;;;;;;5.00;4.50;;;7.40;99.90;;;;;;5015165;28;20459;-72
2021/03/05 09:33:16;;;;;;;8.63;5.23;;;7.30;99.90;;;;;;5015163;28;20438;-72
2021/03/05 09:35:42;;;;;;;4.70;4.30;;;6.90;99.90;;;;;;5015078;28;20472;-71
2021/03/05 09:38:07;;;;;;;6.97;4.73;;;6.60;99.90;;;;;;5015275;28;20435;-72
2021/03/05 09:40:34;;;;;;;6.17;4.23;;;7.10;99.90;;;;;;5015163;28;20278;-70
2021/03/05 09:43:01;;;;;;;4.43;3.50;;;7.50;99.90;;;;;;5015024;28;20180;-70
2021/03/05 09:45:37;;;;;;;4.30;3.27;;;7.70;99.90;;;;;;5014800;28;20494;-71
2021/03/05 09:48:04;;;;;;;4.33;3.20;;;7.40;99.90;;;;;;5014263;28;20541;-70
2021/03/05 09:50:31;;;;;;;5.83;3.50;;;7.50;99.90;;;;;;5014759;28;20507;-72
2021/03/05 09:52:57;;;;;;;4.07;3.13;;;7.30;99.90;;;;;;5013611;28;20482;-71
2021/03/05 09:55:24;;;;;;;3.03;2.83;;;7.30;99.90;;;;;;5020176;28;20414;-71
2021/03/05 09:57:51;;;;;;;3.20;2.90;;;7.10;99.90;;;;;;5034773;28;20414;-75
2021/03/05 10:00:31;;;;;;;3.43;3.13;;;6.70;99.90;;;;;;5034677;28;20416;-74
2021/03/05 10:03:03;;;;;;;4.03;3.60;;;6.20;99.90;;;;;;4995318;28;20435;-73
2021/03/05 10:05:31;;;;;;;4.90;4.33;;;6.00;99.90;;;;;;4996025;28;20432;-79
2021/03/05 10:07:56;;;;;;;3.40;3.10;;;5.80;99.90;;;;;;4995927;28;20460;-72
2021/03/05 10:10:22;;;;;;;3.23;2.93;;;5.50;99.90;;;;;;5004880;28;20423;-73
2021/03/05 10:12:54;;;;;;;11.93;6.57;;;5.60;99.90;;;;;;4993989;28;20161;-75
2021/03/05 10:15:20;;;;;;;3.87;2.87;;;5.20;99.90;;;;;;4995126;28;20192;-72
2021/03/05 10:17:47;;;;;;;3.60;2.03;;;5.00;99.90;;;;;;4994864;28;20409;-75
2021/03/05 10:20:13;;;;;;;3.60;2.47;;;5.10;99.90;;;;;;4987715;28;20418;-71
2021/03/05 10:22:40;;;;;;;2.10;1.93;;;4.90;99.90;;;;;;5014860;28;20443;-71
2021/03/05 10:25:06;;;;;;;3.13;2.17;;;4.60;99.90;;;;;;5014459;28;20774;-71
2021/03/05 10:27:42;;;;;;;4.17;3.07;;;4.60;99.90;;;;;;5002585;28;20448;-70
2021/03/05 10:30:08;;;;;;;2.30;1.83;;;5.00;99.90;;;;;;5009391;28;20514;-70
2021/03/05 10:32:44;;;;;;;2.40;1.93;;;5.20;99.90;;;;;;4998528;28;20459;-70
2021/03/05 10:35:11;;;;;;;1.20;1.10;;;5.10;99.90;;;;;;5010644;28;20435;-70
2021/03/05 10:37:38;;;;;;;1.97;1.83;;;5.30;99.90;;;;;;5009486;28;21149;-71
2021/03/05 10:40:06;;;;;;;2.00;1.70;;;5.00;99.90;;;;;;5014276;28;20419;-70
2021/03/05 10:42:32;;;;;;;2.87;1.63;;;4.90;99.90;;;;;;5013347;28;20407;-70
2021/03/05 10:44:57;;;;;;;4.03;2.47;;;4.80;99.90;;;;;;4996629;28;20435;-71
2021/03/05 10:47:23;;;;;;;2.10;1.90;;;4.70;99.90;;;;;;4994037;28;20255;-71
2021/03/05 10:49:50;;;;;;;3.93;2.37;;;4.60;99.90;;;;;;4994362;28;20661;-71
2021/03/05 10:52:18;;;;;;;2.03;1.60;;;4.80;99.90;;;;;;4994321;28;20532;-71
2021/03/05 10:54:45;;;;;;;1.83;1.10;;;4.50;99.90;;;;;;4986603;28;20451;-72
2021/03/05 10:57:16;;;;;;;2.40;1.67;;;4.60;99.90;;;;;;5011947;28;20419;-75
2021/03/05 10:59:43;;;;;;;6.73;2.30;;;4.60;99.90;;;;;;5011679;28;20408;-71
2021/03/05 11:02:09;;;;;;;4.93;2.40;;;4.60;99.90;;;;;;5012440;28;20407;-72
2021/03/05 11:04:34;;;;;;;4.03;2.40;;;4.70;99.90;;;;;;5013695;28;20427;-71
2021/03/05 11:07:02;;;;;;;2.07;1.60;;;4.60;99.90;;;;;;5011759;28;20987;-71
2021/03/05 11:09:28;;;;;;;3.03;2.43;;;4.80;99.90;;;;;;5013845;28;20177;-72
2021/03/05 11:11:55;;;;;;;2.87;2.20;;;4.80;99.90;;;;;;5013591;28;20403;-71
2021/03/05 11:14:21;;;;;;;3.17;2.40;;;4.80;99.90;;;;;;4995719;28;20431;-72
2021/03/05 11:16:46;;;;;;;4.07;2.47;;;4.90;99.90;;;;;;4995802;28;20473;-72
2021/03/05 11:19:12;;;;;;;2.70;2.50;;;5.10;99.90;;;;;;4995899;28;20415;-71
2021/03/05 11:21:38;;;;;;;2.10;1.80;;;5.20;99.90;;;;;;5013562;28;20176;-71
2021/03/05 11:24:05;;;;;;;3.77;2.10;;;5.20;99.90;;;;;;5012870;28;20219;-71
2021/03/05 11:26:30;;;;;;;5.30;2.20;;;5.00;99.90;;;;;;5012763;28;20490;-71
2021/03/05 11:28:56;;;;;;;3.40;2.30;;;4.90;99.90;;;;;;5012889;28;21038;-72
2021/03/05 11:31:22;;;;;;;2.47;2.10;;;5.10;99.90;;;;;;5012991;28;20165;-71
2021/03/05 11:33:48;;;;;;;3.73;1.73;;;5.10;99.90;;;;;;5012957;28;20423;-73
2021/03/05 11:36:15;;;;;;;5.23;1.97;;;5.30;99.90;;;;;;5013059;28;20407;-73
2021/03/05 11:38:43;;;;;;;2.30;2.10;;;5.40;99.90;;;;;;5006687;28;20846;-71
2021/03/05 11:41:09;;;;;;;2.30;1.80;;;5.20;97.30;;;;;;4995671;28;20393;-71
2021/03/05 11:43:41;;;;;;;1.87;1.37;;;5.20;98.00;;;;;;4993655;28;20442;-72
2021/03/05 11:46:08;;;;;;;3.23;1.60;;;5.20;98.20;;;;;;5002892;28;20443;-74
2021/03/05 11:48:33;;;;;;;1.60;1.50;;;5.40;98.40;;;;;;5012760;28;20801;-73
2021/03/05 11:50:58;;;;;;;1.30;1.20;;;5.40;98.20;;;;;;5013034;28;20407;-74
2021/03/05 11:53:24;;;;;;;2.07;1.60;;;5.60;98.00;;;;;;5013017;28;20184;-73
2021/03/05 11:55:50;;;;;;;1.43;1.27;;;5.50;95.90;;;;;;5012724;28;20176;-73
2021/03/05 11:58:15;;;;;;;2.40;1.43;;;5.60;95.00;;;;;;4995225;28;20271;-74
2021/03/05 12:00:41;;;;;;;1.90;1.47;;;5.70;95.30;;;;;;5013532;28;20426;-72
2021/03/05 12:03:06;;;;;;;2.40;1.33;;;5.70;93.00;;;;;;5026402;28;20311;-72
2021/03/05 12:05:32;;;;;;;1.13;0.90;;;5.70;93.80;;;;;;5036293;28;20179;-72
2021/03/05 12:07:57;;;;;;;2.10;1.40;;;5.70;94.00;;;;;;5036367;28;20195;-72
2021/03/05 12:10:23;;;;;;;2.77;1.57;;;5.80;93.40;;;;;;5015740;28;20631;-74
2021/03/05 12:12:48;;;;;;;3.27;1.20;;;5.80;92.30;;;;;;5018402;28;20594;-76
2021/03/05 12:15:15;;;;;;;2.20;1.20;;;5.90;92.10;;;;;;5023975;28;20173;-73
2021/03/05 12:17:40;;;;;;;1.73;1.10;;;6.00;91.20;;;;;;5018504;28;20186;-73
2021/03/05 12:20:06;;;;;;;1.87;1.33;;;5.90;91.00;;;;;;5005499;28;20523;-73
2021/03/05 12:22:31;;;;;;;1.47;1.00;;;6.00;91.40;;;;;;4992842;28;20251;-72
2021/03/05 12:24:57;;;;;;;1.20;1.03;;;5.90;90.90;;;;;;5014749;28;20194;-72
2021/03/05 12:27:23;;;;;;;1.50;1.10;;;5.90;90.90;;;;;;4979667;28;20687;-73
2021/03/05 12:29:49;;;;;;;2.03;1.10;;;5.80;91.10;;;;;;5012210;28;20660;-73
2021/03/05 12:32:14;;;;;;;1.20;1.10;;;5.80;91.60;;;;;;5012054;28;20412;-71
2021/03/05 12:34:41;;;;;;;2.37;1.10;;;5.80;90.90;;;;;;5012337;28;20523;-73
2021/03/05 12:37:07;;;;;;;1.53;1.43;;;5.90;90.30;;;;;;5011488;28;20167;-71
2021/03/05 12:39:32;;;;;;;2.80;1.20;;;5.80;90.60;;;;;;5011942;28;20431;-71
2021/03/05 12:41:58;;;;;;;2.57;1.33;;;5.70;90.90;;;;;;5012060;28;20181;-72
2021/03/05 12:44:23;;;;;;;1.53;1.40;;;5.90;90.90;;;;;;5011796;28;20572;-71
2021/03/05 12:46:49;;;;;;;1.80;1.20;;;5.90;90.80;;;;;;5011694;28;20524;-72
2021/03/05 12:49:14;;;;;;;1.77;1.30;;;6.00;90.90;;;;;;5012121;28;20172;-73
2021/03/05 12:51:40;;;;;;;1.30;1.20;;;6.10;90.40;;;;;;5012391;28;20594;-71
2021/03/05 12:54:05;;;;;;;1.10;1.00;;;6.20;89.50;;;;;;4994240;28;20628;-72